Portada
METAR-TAF:

METAR-TAF

Aeroports :

Iqaluit, Nunavut, Canadà

latitud: 63-45N, longitud: 068-33W, altitud: 34 m

Observació

L'informe es va fer fa 38 minuts, a les 18:00 UTC
Vent 20 kt del Nord/Nord-Oest amb ràfegues de 25 kt
Temperatura -19°C
Humitat 64%
Pressió 1043 hPa
Visibilitat: 48.3 km
Cel clar
torb baixa de neu

METAR: CYFB 031800Z 33020G25KT 30SM DRSN SKC M19/M24 A3079 RMK SLP433

Hora: 14:38 (18:38 UTC)

Pronòstic

L'informe es va fer fa 1 hora i 0 minuts, a les 17:38 UTC
Pronòstic vàlid del 03 a les 18 UTC al 04 a les 18 UTC
Vent 20 kt del Nord/Nord-Oest
Visibilitat: 10 km
Cel clar
torb baixa de neu
A partir de les 04 a les 0300 UTC
Vent 8 kt del Nord-Oest
Visibilitat: 10 km
Cel clar
Evolucionant progressivament
l' 04 a les 10 UTC al 04 a les 12 UTC
Vent 15 kt del Nord-Oest

TAF: CYFB 031738Z 0318/0418 33020KT P6SM DRSN SKC FM040300 32008KT P6SM SKC BECMG 0410/0412 32015KT RMK NXT FCST BY 040000Z

Observacions i pronòstics meteorològics de més de 4000 aeroports (METAR i TAF).

Les estacions disponibles són els punts grocs i vermells al mapa.

Posi el ratolí al punt desitjat per veure el nom de l'estació.

Feu clic per veure les observacions i els pronòstics meteorològics.

Per canviar el mapa: feu clic els botons verds amb una creu de color negre per apropar; al botó verd amb un guió per allunyar la imatge; o en les fletxes verdes per a mapes adjacents.


METAR-TAF: